sensor_id;sensor_type;location;lat;lon;timestamp;P1;durP1;ratioP1;P2;durP2;ratioP2
52586;SDS011;38480;52.724;6.436;2022-11-25T20:44:50;48.40;;;17.50;;
52586;SDS011;38480;52.724;6.436;2022-11-25T20:47:17;46.17;;;16.70;;
52586;SDS011;38480;52.724;6.436;2022-11-25T20:49:44;48.13;;;20.97;;
52586;SDS011;38480;52.724;6.436;2022-11-25T20:52:32;63.00;;;21.37;;
52586;SDS011;38480;52.724;6.436;2022-11-25T20:54:56;51.07;;;21.97;;
52586;SDS011;38480;52.724;6.436;2022-11-25T20:57:23;64.40;;;22.47;;
52586;SDS011;38480;52.724;6.436;2022-11-25T20:59:49;56.70;;;21.13;;
52586;SDS011;38480;52.724;6.436;2022-11-25T21:02:15;70.23;;;24.53;;
52586;SDS011;38480;52.724;6.436;2022-11-25T21:04:42;68.70;;;27.00;;
52586;SDS011;38480;52.724;6.436;2022-11-25T21:07:12;65.97;;;24.33;;
52586;SDS011;38480;52.724;6.436;2022-11-25T21:09:39;59.90;;;21.47;;
52586;SDS011;38480;52.724;6.436;2022-11-25T21:12:08;77.73;;;24.60;;
52586;SDS011;38480;52.724;6.436;2022-11-25T21:14:36;64.13;;;22.93;;
52586;SDS011;38480;52.724;6.436;2022-11-25T21:17:03;61.17;;;21.50;;
52586;SDS011;38480;52.724;6.436;2022-11-25T21:19:29;62.77;;;22.23;;
52586;SDS011;38480;52.724;6.436;2022-11-25T21:21:55;74.20;;;24.23;;
52586;SDS011;38480;52.724;6.436;2022-11-25T21:24:32;64.80;;;24.27;;
52586;SDS011;38480;52.724;6.436;2022-11-25T21:27:00;63.33;;;22.47;;
52586;SDS011;38480;52.724;6.436;2022-11-25T21:29:27;62.23;;;21.40;;
52586;SDS011;38480;52.724;6.436;2022-11-25T21:31:54;58.17;;;22.27;;
52586;SDS011;38480;52.724;6.436;2022-11-25T21:34:20;55.77;;;19.27;;
52586;SDS011;38480;52.724;6.436;2022-11-25T21:36:47;69.03;;;23.63;;
52586;SDS011;38480;52.724;6.436;2022-11-25T21:39:29;61.40;;;23.80;;
52586;SDS011;38480;52.724;6.436;2022-11-25T21:42:01;56.70;;;20.33;;
52586;SDS011;38480;52.724;6.436;2022-11-25T21:44:35;57.10;;;21.93;;
52586;SDS011;38480;52.724;6.436;2022-11-25T21:47:12;66.17;;;25.20;;
52586;SDS011;38480;52.724;6.436;2022-11-25T21:49:39;52.27;;;23.33;;
52586;SDS011;38480;52.724;6.436;2022-11-25T21:52:05;64.33;;;20.70;;
52586;SDS011;38480;52.724;6.436;2022-11-25T21:54:31;57.93;;;21.40;;
52586;SDS011;38480;52.724;6.436;2022-11-25T21:56:57;69.97;;;22.83;;
52586;SDS011;38480;52.724;6.436;2022-11-25T21:59:23;72.90;;;23.33;;
52586;SDS011;38480;52.724;6.436;2022-11-25T22:01:50;50.40;;;19.70;;
52586;SDS011;38480;52.724;6.436;2022-11-25T22:04:17;60.53;;;22.63;;
52586;SDS011;38480;52.724;6.436;2022-11-25T22:06:44;61.33;;;22.80;;
52586;SDS011;38480;52.724;6.436;2022-11-25T22:09:11;59.87;;;21.73;;
52586;SDS011;38480;52.724;6.436;2022-11-25T22:11:37;62.53;;;21.23;;
52586;SDS011;38480;52.724;6.436;2022-11-25T22:14:12;48.53;;;21.67;;
52586;SDS011;38480;52.724;6.436;2022-11-25T22:16:39;53.73;;;19.13;;
52586;SDS011;38480;52.724;6.436;2022-11-25T22:19:05;48.97;;;18.67;;
52586;SDS011;38480;52.724;6.436;2022-11-25T22:21:31;55.00;;;19.80;;
52586;SDS011;38480;52.724;6.436;2022-11-25T22:23:57;71.30;;;20.63;;
52586;SDS011;38480;52.724;6.436;2022-11-25T22:26:27;51.63;;;19.23;;
52586;SDS011;38480;52.724;6.436;2022-11-25T22:28:54;63.60;;;22.00;;
52586;SDS011;38480;52.724;6.436;2022-11-25T22:31:20;56.57;;;18.60;;
52586;SDS011;38480;52.724;6.436;2022-11-25T22:33:47;76.43;;;21.67;;
52586;SDS011;38480;52.724;6.436;2022-11-25T22:36:34;77.40;;;24.33;;
52586;SDS011;38480;52.724;6.436;2022-11-25T22:39:05;80.27;;;27.20;;
52586;SDS011;38480;52.724;6.436;2022-11-25T22:41:35;76.03;;;25.73;;
52586;SDS011;38480;52.724;6.436;2022-11-25T22:44:01;78.73;;;26.20;;
52586;SDS011;38480;52.724;6.436;2022-11-25T22:46:28;97.97;;;26.70;;
52586;SDS011;38480;52.724;6.436;2022-11-25T22:48:54;80.07;;;25.83;;
52586;SDS011;38480;52.724;6.436;2022-11-25T22:51:23;75.67;;;25.20;;
52586;SDS011;38480;52.724;6.436;2022-11-25T22:53:50;75.07;;;25.40;;
52586;SDS011;38480;52.724;6.436;2022-11-25T22:56:17;79.50;;;24.27;;
52586;SDS011;38480;52.724;6.436;2022-11-25T22:58:43;86.20;;;24.83;;
52586;SDS011;38480;52.724;6.436;2022-11-25T23:01:13;89.97;;;29.43;;
52586;SDS011;38480;52.724;6.436;2022-11-25T23:03:40;67.03;;;23.23;;
52586;SDS011;38480;52.724;6.436;2022-11-25T23:06:08;78.37;;;24.57;;
52586;SDS011;38480;52.724;6.436;2022-11-25T23:08:35;84.73;;;25.53;;
52586;SDS011;38480;52.724;6.436;2022-11-25T23:11:01;87.83;;;29.53;;
52586;SDS011;38480;52.724;6.436;2022-11-25T23:13:27;101.07;;;32.97;;
52586;SDS011;38480;52.724;6.436;2022-11-25T23:15:57;108.87;;;38.40;;
52586;SDS011;38480;52.724;6.436;2022-11-25T23:18:40;103.70;;;38.53;;
52586;SDS011;38480;52.724;6.436;2022-11-25T23:21:17;84.80;;;35.50;;
52586;SDS011;38480;52.724;6.436;2022-11-25T23:23:44;92.27;;;30.93;;
52586;SDS011;38480;52.724;6.436;2022-11-25T23:26:10;114.60;;;37.30;;
52586;SDS011;38480;52.724;6.436;2022-11-25T23:28:37;114.07;;;33.93;;
52586;SDS011;38480;52.724;6.436;2022-11-25T23:31:03;128.27;;;38.57;;
52586;SDS011;38480;52.724;6.436;2022-11-25T23:33:33;98.23;;;34.30;;
52586;SDS011;38480;52.724;6.436;2022-11-25T23:36:06;106.38;;;36.47;;
52586;SDS011;38480;52.724;6.436;2022-11-25T23:38:33;95.20;;;34.33;;
52586;SDS011;38480;52.724;6.436;2022-11-25T23:41:01;159.00;;;44.73;;
52586;SDS011;38480;52.724;6.436;2022-11-25T23:43:27;100.47;;;34.37;;
52586;SDS011;38480;52.724;6.436;2022-11-25T23:45:55;105.23;;;34.13;;
52586;SDS011;38480;52.724;6.436;2022-11-25T23:48:30;103.43;;;33.47;;
52586;SDS011;38480;52.724;6.436;2022-11-25T23:50:57;97.53;;;32.10;;
52586;SDS011;38480;52.724;6.436;2022-11-25T23:53:25;91.97;;;31.67;;
52586;SDS011;38480;52.724;6.436;2022-11-25T23:55:52;108.83;;;34.23;;
52586;SDS011;38480;52.724;6.436;2022-11-25T23:58:19;90.20;;;29.77;;
